KICT

Wichita Dwight D Eisenhower National Airport

Wichita, Kansas, USA
KICT 212320Z 2200/2224 16025G36KT P6SM BKN210 FM220700 17024G34KT P6SM OVC023 WS020/19050KT FM221300 20017KT P6SM OVC007 FM221600 28018KT P6SM OVC012 FM222100 33024G34KT P6SM OVC021
Issued Valid From Valid To
Jan-21 @ 23:20 UTC
(52 minutes ago)
Jan-22 @ 00:00 UTC
(12 minutes ago)
Jan-23 @ 00:00 UTC
(in 24 hours)
Jan-22 @ 00:00 to Jan-22 @ 07:00
KICT 212320Z 2200/2224 16025G36KT P6SM BKN210
Wind Visibility Clouds
160° at 25 knots
 Gusting to 36 knots
Greater than 6 miles
  • Broken at 21,000' AGL
From Jan-22 @ 07:00 to Jan-22 @ 13:00
FM220700 17024G34KT P6SM OVC023 WS020/19050KT
Wind Visibility Clouds
170° at 24 knots
 Gusting to 34 knots
 Wind shear 2,000' AGL from 190° at 50 knots
Greater than 6 miles
  • Overcast at 2,300' AGL
From Jan-22 @ 13:00 to Jan-22 @ 16:00
FM221300 20017KT P6SM OVC007
Wind Visibility Clouds
200° at 17 knots Greater than 6 miles
  • Overcast at 700' AGL
From Jan-22 @ 16:00 to Jan-22 @ 21:00
FM221600 28018KT P6SM OVC012
Wind Visibility Clouds
280° at 18 knots Greater than 6 miles
  • Overcast at 1,200' AGL
From Jan-22 @ 21:00 to Jan-23 @ 00:00
FM222100 33024G34KT P6SM OVC021
Wind Visibility Clouds
330° at 24 knots
 Gusting to 34 knots
Greater than 6 miles
  • Overcast at 2,100' AGL
KICT 212320Z 2200/2224 16025G36KT P6SM BKN210 FM220700 17024G34KT P6SM OVC023 WS020/19050KT FM221300 20017KT P6SM OVC007 FM221600 28018KT P6SM OVC012 FM222100 33024G34KT P6SM OVC021
Issued Jan-21 @ 23:20 UTC
(52 minutes ago)
Valid From Jan-22 @ 00:00 UTC
(12 minutes ago)
Valid To Jan-23 @ 00:00 UTC
(in 24 hours)
Jan-22 @ 00:00 - Jan-22 @ 07:00
Wind Visibility
160° at 25 knots
 Gusting to 36 knots
Greater than 6 miles
Clouds
  • Broken at 21,000' AGL
From Jan-22 @ 07:00 - Jan-22 @ 13:00
Wind Visibility
170° at 24 knots
 Gusting to 34 knots
Greater than 6 miles
Clouds
  • Overcast at 2,300' AGL
From Jan-22 @ 13:00 - Jan-22 @ 16:00
Wind Visibility
200° at 17 knots Greater than 6 miles
Clouds
  • Overcast at 700' AGL
From Jan-22 @ 16:00 - Jan-22 @ 21:00
Wind Visibility
280° at 18 knots Greater than 6 miles
Clouds
  • Overcast at 1,200' AGL
From Jan-22 @ 21:00 - Jan-23 @ 00:00
Wind Visibility
330° at 24 knots
 Gusting to 34 knots
Greater than 6 miles
Clouds
  • Overcast at 2,100' AGL